Lynn, AR (72440)

12:16 AM CST on December 06, 2016 (GMT -0600)
Walnut Ridge Regional | | Change Station

Elev 272 ft 36.12 °N, 90.93 °W | Updated 21 minutes ago

Overcast
Overcast
41 °F
Feels Like 35 °F
N
9
Wind Variable Wind from North

Today
High -- | Low -- °F
--% Chance of Precip.
Yesterday
High -- | Low -- °F
Precip. -- in
Pressure 29.73 in
Visibility 2.5 miles
Clouds Overcast 300 ft
Windchill 35 °F
Dew Point 37 °F
Humidity 87%
Rainfall 0.04 in
Snow Depth Not available.
7:01 AM 4:50 PM
Waxing Crescent, 38% visible
METAR KARG 060555Z AUTO 36008KT 2 1/2SM VCTS OVC003 05/03 A2973 RMK AO1 TSB46 P0002 60002 10060 20050 57017
Pressure 29.73 in
Visibility 2.5 miles
Clouds Overcast 300 ft
Windchill 35 °F
Dew Point 37 °F
Humidity 87%
Rainfall 0.04 in
Snow Depth Not available.
7:01 AM 4:50 PM
Waxing Crescent, 38% visible
METAR KARG 060555Z AUTO 36008KT 2 1/2SM VCTS OVC003 05/03 A2973 RMK AO1 TSB46 P0002 60002 10060 20050 57017

10-Day Weather Forecast

Almanac

Astronomy

Dec. 06, 2016 Rise Set
Actual Time
Civil Twilight
Nautical Twilight
Astronomical Twilight
Moon
Length of Visible Light
Length of Day
Tomorrow will be .
, % of the Moon is Illuminated

Today's Extremes

State Highs State Lows

Community

WunderPhotos

Upload Photos

1,955,931 photos uploaded!

WunderBlog® & News

Nearby

Air Quality

  Air Quality AQ Index Pollutant
Not available.

Snow Depth

Station Depth Elevation

Earthquake Activity

City Distance Mag. Time & Date
Minimum magnitude displayed is 2.5.

Coastal Water Temperatures

Place Temperature

Stations

Nearby Weather Stations

Station Location Temp. Windchill Dew Point Humidity Wind Precip. Elev Updated Type
                   

Watches & Warnings

There are currently no watches in effect.